createdAt,value
2023-06-11T00:00:46.274Z,17.78
2023-06-11T00:01:46.246Z,17.70
2023-06-11T00:02:46.313Z,17.68
2023-06-11T00:03:46.404Z,17.65
2023-06-11T00:04:46.402Z,17.64
2023-06-11T00:05:46.222Z,17.59
2023-06-11T00:06:46.190Z,17.45
2023-06-11T00:07:46.192Z,17.42
2023-06-11T00:08:46.168Z,17.49
2023-06-11T00:09:46.195Z,17.57
2023-06-11T00:10:46.147Z,17.60
2023-06-11T00:11:46.118Z,17.67
2023-06-11T00:12:46.120Z,17.68
2023-06-11T00:13:46.128Z,17.65
2023-06-11T00:14:46.139Z,17.60
2023-06-11T00:15:46.115Z,17.59
2023-06-11T00:16:46.150Z,17.46
2023-06-11T00:17:46.129Z,17.34
2023-06-11T00:18:46.108Z,17.24
2023-06-11T00:19:46.038Z,17.15
2023-06-11T00:20:46.038Z,17.12
2023-06-11T00:21:46.031Z,17.19
2023-06-11T00:22:46.001Z,17.16
2023-06-11T00:23:46.064Z,17.16
2023-06-11T00:24:46.003Z,17.09
2023-06-11T00:25:47.341Z,17.04
2023-06-11T00:26:45.968Z,16.96
2023-06-11T00:27:45.951Z,16.84
2023-06-11T00:28:45.966Z,16.75
2023-06-11T00:29:45.920Z,16.71
2023-06-11T00:30:45.917Z,16.66
2023-06-11T00:31:45.950Z,16.58
2023-06-11T00:32:45.931Z,16.60
2023-06-11T00:33:45.899Z,16.57
2023-06-11T00:34:45.873Z,16.51
2023-06-11T00:35:45.852Z,16.47
2023-06-11T00:36:45.849Z,16.41
2023-06-11T00:37:45.863Z,16.33
2023-06-11T00:38:45.835Z,16.35
2023-06-11T00:39:45.796Z,16.39
2023-06-11T00:40:45.788Z,16.39
2023-06-11T00:41:45.800Z,16.38
2023-06-11T00:42:45.838Z,16.47
2023-06-11T00:43:45.781Z,16.51
2023-06-11T00:44:45.765Z,16.51
2023-06-11T00:45:45.794Z,16.43
2023-06-11T00:46:45.747Z,16.31
2023-06-11T00:47:45.821Z,16.21
2023-06-11T00:48:45.718Z,16.16
2023-06-11T00:49:45.710Z,16.12
2023-06-11T00:50:45.675Z,16.12
2023-06-11T00:51:45.681Z,16.08
2023-06-11T00:52:45.692Z,15.98
2023-06-11T00:53:45.654Z,15.92
2023-06-11T00:54:45.647Z,15.83
2023-06-11T00:55:45.611Z,15.86
2023-06-11T00:56:45.641Z,15.83
2023-06-11T00:57:45.596Z,15.84
2023-06-11T00:58:45.647Z,15.84
2023-06-11T00:59:45.696Z,15.84
2023-06-11T01:00:45.594Z,15.90
2023-06-11T01:01:45.590Z,15.90
2023-06-11T01:02:45.596Z,15.88
2023-06-11T01:03:45.549Z,15.91
2023-06-11T01:04:45.614Z,15.84
2023-06-11T01:05:45.635Z,15.77
2023-06-11T01:06:45.525Z,15.67
2023-06-11T01:07:45.473Z,15.62
2023-06-11T01:08:45.468Z,15.65
2023-06-11T01:09:45.463Z,15.64
2023-06-11T01:10:45.501Z,15.59
2023-06-11T01:11:45.462Z,15.59
2023-06-11T01:12:47.760Z,15.57
2023-06-11T01:13:45.407Z,15.59
2023-06-11T01:14:45.425Z,15.61
2023-06-11T01:15:45.442Z,15.55
2023-06-11T01:16:45.389Z,15.52
2023-06-11T01:17:45.439Z,15.42
2023-06-11T01:18:45.370Z,15.39
2023-06-11T01:19:45.352Z,15.28
2023-06-11T01:20:45.379Z,15.24
2023-06-11T01:21:45.333Z,15.28
2023-06-11T01:22:45.310Z,15.40
2023-06-11T01:23:45.302Z,15.54
2023-06-11T01:24:45.301Z,15.58
2023-06-11T01:25:45.315Z,15.58
2023-06-11T01:26:45.288Z,15.54
2023-06-11T01:27:45.267Z,15.47
2023-06-11T01:28:45.247Z,15.51
2023-06-11T01:29:45.276Z,15.47
2023-06-11T01:30:45.219Z,15.49
2023-06-11T01:31:45.365Z,15.52
2023-06-11T01:32:45.200Z,15.51
2023-06-11T01:33:45.172Z,15.47
2023-06-11T01:34:45.219Z,15.43
2023-06-11T01:35:45.155Z,15.47
2023-06-11T01:36:45.159Z,15.44
2023-06-11T01:37:45.138Z,15.43
2023-06-11T01:38:45.112Z,15.40
2023-06-11T01:39:45.151Z,15.33
2023-06-11T01:40:45.109Z,15.28
2023-06-11T01:41:45.081Z,15.25
2023-06-11T01:42:45.080Z,15.31
2023-06-11T01:43:45.101Z,15.22
2023-06-11T01:44:45.089Z,15.22
2023-06-11T01:45:45.050Z,15.19
2023-06-11T01:46:45.074Z,15.15
2023-06-11T01:47:45.072Z,15.11
2023-06-11T01:48:45.031Z,15.02
2023-06-11T01:49:45.054Z,14.94
2023-06-11T01:50:44.993Z,14.97
2023-06-11T01:51:44.967Z,14.92
2023-06-11T01:52:44.957Z,14.91
2023-06-11T01:53:44.989Z,14.88
2023-06-11T01:54:44.950Z,14.77
2023-06-11T01:55:44.910Z,14.69
2023-06-11T01:56:44.917Z,14.72
2023-06-11T01:57:44.941Z,14.68
2023-06-11T01:58:44.928Z,14.69
2023-06-11T01:59:44.901Z,14.58
2023-06-11T02:00:44.876Z,14.53
2023-06-11T02:01:44.900Z,14.50
2023-06-11T02:02:45.008Z,14.45
2023-06-11T02:03:44.911Z,14.45
2023-06-11T02:04:44.825Z,14.62
2023-06-11T02:05:44.819Z,14.79
2023-06-11T02:06:44.858Z,14.85
2023-06-11T02:07:44.879Z,14.73
2023-06-11T02:08:44.775Z,14.65
2023-06-11T02:09:44.757Z,14.62
2023-06-11T02:10:44.785Z,14.62
2023-06-11T02:11:44.761Z,14.50
2023-06-11T02:12:44.767Z,14.44
2023-06-11T02:13:44.735Z,14.40
2023-06-11T02:14:44.705Z,14.47
2023-06-11T02:15:44.699Z,14.51
2023-06-11T02:16:44.726Z,14.44
2023-06-11T02:17:44.683Z,14.50
2023-06-11T02:18:44.675Z,14.51
2023-06-11T02:19:44.688Z,14.59
2023-06-11T02:20:44.655Z,14.59
2023-06-11T02:21:44.665Z,14.58
2023-06-11T02:22:44.655Z,14.68
2023-06-11T02:23:44.653Z,14.68
2023-06-11T02:24:44.662Z,14.59
2023-06-11T02:25:44.593Z,14.48
2023-06-11T02:26:44.608Z,14.37
2023-06-11T02:27:44.588Z,14.36
2023-06-11T02:28:44.550Z,14.28
2023-06-11T02:29:44.550Z,14.23
2023-06-11T02:30:44.573Z,14.11
2023-06-11T02:31:44.620Z,13.99
2023-06-11T02:32:44.581Z,13.86
2023-06-11T02:33:44.494Z,13.71
2023-06-11T02:34:44.496Z,13.57
2023-06-11T02:35:44.527Z,13.44
2023-06-11T02:36:44.447Z,13.30
2023-06-11T02:37:44.446Z,13.16
2023-06-11T02:38:44.479Z,13.08
2023-06-11T02:39:44.447Z,12.91
2023-06-11T02:40:44.450Z,12.76
2023-06-11T02:41:44.420Z,12.67
2023-06-11T02:42:44.408Z,12.62
2023-06-11T02:43:44.401Z,12.55
2023-06-11T02:44:44.419Z,12.47
2023-06-11T02:45:44.453Z,12.42
2023-06-11T02:46:44.393Z,12.29
2023-06-11T02:47:44.360Z,12.25
2023-06-11T02:48:44.327Z,12.20
2023-06-11T02:49:44.356Z,12.10
2023-06-11T02:50:44.309Z,12.03
2023-06-11T02:51:44.288Z,12.02
2023-06-11T02:52:44.264Z,12.00
2023-06-11T02:53:44.254Z,12.00
2023-06-11T02:54:44.269Z,11.97
2023-06-11T02:55:44.243Z,11.95
2023-06-11T02:56:44.262Z,11.91
2023-06-11T02:57:44.238Z,11.88
2023-06-11T02:58:44.257Z,11.83
2023-06-11T02:59:44.242Z,11.77
2023-06-11T03:00:44.220Z,11.70
2023-06-11T03:01:44.186Z,11.65
2023-06-11T03:02:44.232Z,11.59
2023-06-11T03:03:44.248Z,11.51
2023-06-11T03:04:44.149Z,11.50
2023-06-11T03:05:44.130Z,11.47
2023-06-11T03:06:44.107Z,11.41
2023-06-11T03:07:44.109Z,11.41
2023-06-11T03:08:44.134Z,11.40
2023-06-11T03:09:44.091Z,11.35
2023-06-11T03:10:44.074Z,11.30
2023-06-11T03:11:44.078Z,11.29
2023-06-11T03:12:44.050Z,11.25
2023-06-11T03:13:44.079Z,11.22
2023-06-11T03:14:44.053Z,11.12
2023-06-11T03:15:44.047Z,11.08
2023-06-11T03:16:44.004Z,11.05
2023-06-11T03:17:44.002Z,11.02
2023-06-11T03:18:44.008Z,11.02
2023-06-11T03:19:43.980Z,10.99
2023-06-11T03:20:43.945Z,11.00
2023-06-11T03:21:43.951Z,10.97
2023-06-11T03:22:43.961Z,10.99
2023-06-11T03:23:43.992Z,11.00
2023-06-11T03:24:43.897Z,10.94
2023-06-11T03:25:43.916Z,10.93
2023-06-11T03:26:43.872Z,10.92
2023-06-11T03:27:43.910Z,10.89
2023-06-11T03:28:43.877Z,10.92
2023-06-11T03:29:43.853Z,10.93
2023-06-11T03:30:43.837Z,10.94
2023-06-11T03:31:43.832Z,10.96
2023-06-11T03:32:43.931Z,10.96
2023-06-11T03:33:43.804Z,10.99
2023-06-11T03:34:43.791Z,11.04
2023-06-11T03:35:43.795Z,11.07
2023-06-11T03:36:43.807Z,11.10
2023-06-11T03:37:43.794Z,11.11
2023-06-11T03:38:43.745Z,11.14
2023-06-11T03:39:43.808Z,11.15
2023-06-11T03:40:43.733Z,11.17
2023-06-11T03:41:43.793Z,11.19
2023-06-11T03:42:43.713Z,11.25
2023-06-11T03:43:43.705Z,11.26
2023-06-11T03:44:43.688Z,11.29
2023-06-11T03:45:43.684Z,11.36
2023-06-11T03:46:43.770Z,11.44
2023-06-11T03:47:43.738Z,11.44
2023-06-11T03:48:43.649Z,11.52
2023-06-11T03:49:43.631Z,11.68
2023-06-11T03:50:43.600Z,11.83
2023-06-11T03:51:43.631Z,12.02
2023-06-11T03:52:43.571Z,12.25
2023-06-11T03:53:43.554Z,12.53
2023-06-11T03:54:43.555Z,12.79
2023-06-11T03:55:43.580Z,13.09
2023-06-11T03:56:43.561Z,13.52
2023-06-11T03:57:43.503Z,13.99
2023-06-11T03:58:43.515Z,14.44
2023-06-11T03:59:43.506Z,14.86
2023-06-11T04:00:43.537Z,15.31
2023-06-11T04:01:43.481Z,15.75
2023-06-11T04:02:43.587Z,16.00
2023-06-11T04:03:43.570Z,16.32
2023-06-11T04:04:43.505Z,16.56
2023-06-11T04:05:43.461Z,16.87
2023-06-11T04:06:43.446Z,17.20
2023-06-11T04:07:43.403Z,17.42
2023-06-11T04:08:43.411Z,17.44
2023-06-11T04:09:43.443Z,17.65
2023-06-11T04:10:43.429Z,17.95
2023-06-11T04:11:43.388Z,18.28
2023-06-11T04:12:43.338Z,18.52
2023-06-11T04:13:43.358Z,18.73
2023-06-11T04:14:43.359Z,19.04
2023-06-11T04:15:43.330Z,19.22
2023-06-11T04:16:43.386Z,19.52
2023-06-11T04:17:43.416Z,19.76
2023-06-11T04:18:43.289Z,19.88
2023-06-11T04:19:43.313Z,20.07
2023-06-11T04:20:43.260Z,20.34
2023-06-11T04:21:43.258Z,20.22
2023-06-11T04:22:43.229Z,20.32
2023-06-11T04:23:43.240Z,20.47
2023-06-11T04:24:43.254Z,20.74
2023-06-11T04:25:43.224Z,20.93
2023-06-11T04:26:43.182Z,21.06
2023-06-11T04:27:43.190Z,21.24
2023-06-11T04:28:43.208Z,21.21
2023-06-11T04:29:43.193Z,21.32
2023-06-11T04:30:43.139Z,21.52
2023-06-11T04:31:43.247Z,21.54
2023-06-11T04:32:43.176Z,21.75
2023-06-11T04:33:43.157Z,21.79
2023-06-11T04:34:43.380Z,21.98
2023-06-11T04:35:43.109Z,22.22
2023-06-11T04:36:43.077Z,22.44
2023-06-11T04:37:43.060Z,22.68
2023-06-11T04:38:43.086Z,22.75
2023-06-11T04:39:43.035Z,22.88
2023-06-11T04:40:43.028Z,23.21
2023-06-11T04:41:43.029Z,23.23
2023-06-11T04:42:43.010Z,23.36
2023-06-11T04:43:43.039Z,23.39
2023-06-11T04:44:42.990Z,23.47
2023-06-11T04:45:42.997Z,23.41
2023-06-11T04:46:43.021Z,23.23
2023-06-11T04:47:43.017Z,22.96
2023-06-11T04:48:42.987Z,22.55
2023-06-11T04:49:42.947Z,22.26
2023-06-11T04:50:42.917Z,22.17
2023-06-11T04:51:42.912Z,22.17
2023-06-11T04:52:42.919Z,22.08
2023-06-11T04:53:42.888Z,21.77
2023-06-11T04:54:42.895Z,21.35
2023-06-11T04:55:42.873Z,21.25
2023-06-11T04:56:42.844Z,21.46
2023-06-11T04:57:42.878Z,21.11
2023-06-11T04:58:42.821Z,20.84
2023-06-11T04:59:42.820Z,21.22
2023-06-11T05:00:42.802Z,21.32
2023-06-11T05:01:42.868Z,21.12
2023-06-11T05:02:42.825Z,21.02
2023-06-11T05:03:42.771Z,21.24
2023-06-11T05:04:42.760Z,21.05
2023-06-11T05:05:42.837Z,20.74
2023-06-11T05:06:42.772Z,20.62
2023-06-11T05:07:42.745Z,20.56
2023-06-11T05:08:42.691Z,20.36
2023-06-11T05:09:44.473Z,20.32
2023-06-11T05:10:42.699Z,20.78
2023-06-11T05:11:42.720Z,20.80
2023-06-11T05:12:42.668Z,21.00
2023-06-11T05:13:42.660Z,20.82
2023-06-11T05:14:42.667Z,21.18
2023-06-11T05:15:42.675Z,21.55
2023-06-11T05:16:42.751Z,21.50
2023-06-11T05:17:42.693Z,21.80
2023-06-11T05:18:42.638Z,21.85
2023-06-11T05:19:42.603Z,21.50
2023-06-11T05:20:42.621Z,21.33
2023-06-11T05:21:42.555Z,21.36
2023-06-11T05:22:42.553Z,21.22
2023-06-11T05:23:42.644Z,21.09
2023-06-11T05:24:42.569Z,21.17
2023-06-11T05:25:42.554Z,21.11
2023-06-11T05:26:42.514Z,21.30
2023-06-11T05:27:42.508Z,21.25
2023-06-11T05:28:42.517Z,21.30
2023-06-11T05:29:45.773Z,21.24
2023-06-11T05:30:42.494Z,21.07
2023-06-11T05:31:42.492Z,21.60
2023-06-11T05:32:42.530Z,21.99
2023-06-11T05:33:42.429Z,21.93
2023-06-11T05:34:42.468Z,21.73
2023-06-11T05:35:42.428Z,22.08
2023-06-11T05:36:42.392Z,22.38
2023-06-11T05:37:42.401Z,22.68
2023-06-11T05:38:42.373Z,23.02
2023-06-11T05:39:42.399Z,22.69
2023-06-11T05:40:42.353Z,22.45
2023-06-11T05:41:42.355Z,22.38
2023-06-11T05:42:42.341Z,22.29
2023-06-11T05:43:42.360Z,22.84
2023-06-11T05:44:42.361Z,22.35
2023-06-11T05:45:42.334Z,21.93
2023-06-11T05:46:42.467Z,21.58
2023-06-11T05:47:42.359Z,22.08
2023-06-11T05:48:42.321Z,22.26
2023-06-11T05:49:42.251Z,22.50
2023-06-11T05:50:42.202Z,22.59
2023-06-11T05:51:42.214Z,22.29
2023-06-11T05:52:42.190Z,21.85
2023-06-11T05:53:42.247Z,21.91
2023-06-11T05:54:42.197Z,22.20
2023-06-11T05:55:42.208Z,22.33
2023-06-11T05:56:42.187Z,22.36
2023-06-11T05:57:42.186Z,22.63
2023-06-11T05:58:42.159Z,22.66
2023-06-11T05:59:42.135Z,22.83
2023-06-11T06:00:42.091Z,22.91
2023-06-11T06:01:42.093Z,22.94
2023-06-11T06:02:42.154Z,22.32
2023-06-11T06:03:42.300Z,22.32
2023-06-11T06:04:42.134Z,22.62
2023-06-11T06:05:42.078Z,23.08
2023-06-11T06:06:42.115Z,23.59
2023-06-11T06:07:42.080Z,23.39
2023-06-11T06:08:44.610Z,23.74
2023-06-11T06:09:42.036Z,24.16
2023-06-11T06:10:42.009Z,24.55
2023-06-11T06:11:42.032Z,24.14
2023-06-11T06:12:42.013Z,24.03
2023-06-11T06:13:41.972Z,23.51
2023-06-11T06:14:41.962Z,23.92
2023-06-11T06:15:41.945Z,23.92
2023-06-11T06:16:42.021Z,24.32
2023-06-11T06:17:41.979Z,23.99
2023-06-11T06:18:41.930Z,23.92
2023-06-11T06:19:41.889Z,23.66
2023-06-11T06:20:41.919Z,23.68
2023-06-11T06:21:41.910Z,23.76
2023-06-11T06:22:41.869Z,23.92
2023-06-11T06:23:41.951Z,23.68
2023-06-11T06:24:41.857Z,23.86
2023-06-11T06:25:41.899Z,23.76
2023-06-11T06:26:41.938Z,23.83
2023-06-11T06:27:41.830Z,23.93
2023-06-11T06:28:41.796Z,23.91
2023-06-11T06:29:41.812Z,24.21
2023-06-11T06:30:41.804Z,24.28
2023-06-11T06:31:41.912Z,24.10
2023-06-11T06:32:41.800Z,24.33
2023-06-11T06:33:41.783Z,24.73
2023-06-11T06:34:41.730Z,24.93
2023-06-11T06:35:41.759Z,24.77
2023-06-11T06:36:41.708Z,24.89
2023-06-11T06:37:41.747Z,25.08
2023-06-11T06:38:41.737Z,24.69
2023-06-11T06:39:41.761Z,23.76
2023-06-11T06:40:41.713Z,24.51
2023-06-11T06:41:41.664Z,24.78
2023-06-11T06:42:41.677Z,24.60
2023-06-11T06:43:41.636Z,24.10
2023-06-11T06:44:41.682Z,24.23
2023-06-11T06:45:41.621Z,24.03
2023-06-11T06:46:41.628Z,24.10
2023-06-11T06:47:41.737Z,24.14
2023-06-11T06:48:41.751Z,24.40
2023-06-11T06:49:41.611Z,24.53
2023-06-11T06:50:41.610Z,24.58
2023-06-11T06:51:41.557Z,23.96
2023-06-11T06:52:41.541Z,24.61
2023-06-11T06:53:41.574Z,24.42
2023-06-11T06:54:41.569Z,24.55
2023-06-11T06:55:41.529Z,25.14
2023-06-11T06:56:41.515Z,25.10
2023-06-11T06:57:41.509Z,25.44
2023-06-11T06:58:41.511Z,25.35
2023-06-11T06:59:41.479Z,25.75
2023-06-11T07:00:41.458Z,25.41
2023-06-11T07:01:41.485Z,25.16
2023-06-11T07:02:41.461Z,24.66
2023-06-11T07:03:41.485Z,24.86
2023-06-11T07:04:41.452Z,24.81
2023-06-11T07:05:41.427Z,24.98
2023-06-11T07:06:41.397Z,25.69
2023-06-11T07:07:43.566Z,25.98
2023-06-11T07:08:41.401Z,25.99
2023-06-11T07:09:41.372Z,25.68
2023-06-11T07:10:41.355Z,25.68
2023-06-11T07:11:41.359Z,25.70
2023-06-11T07:12:41.399Z,26.22
2023-06-11T07:13:41.328Z,25.98
2023-06-11T07:14:41.288Z,26.41
2023-06-11T07:15:41.326Z,26.58
2023-06-11T07:16:41.348Z,26.19
2023-06-11T07:17:41.352Z,25.81
2023-06-11T07:18:41.269Z,25.63
2023-06-11T07:19:41.290Z,26.06
2023-06-11T07:20:41.274Z,26.13
2023-06-11T07:21:41.289Z,26.09
2023-06-11T07:22:41.239Z,26.31
2023-06-11T07:23:41.265Z,26.81
2023-06-11T07:24:41.228Z,26.99
2023-06-11T07:25:41.186Z,26.41
2023-06-11T07:26:41.223Z,26.62
2023-06-11T07:27:41.167Z,27.12
2023-06-11T07:28:41.153Z,27.07
2023-06-11T07:29:41.158Z,26.51
2023-06-11T07:30:41.133Z,26.22
2023-06-11T07:31:41.217Z,26.41
2023-06-11T07:32:41.148Z,26.47
2023-06-11T07:33:41.095Z,27.17
2023-06-11T07:34:41.106Z,26.68
2023-06-11T07:35:41.055Z,26.34
2023-06-11T07:36:41.077Z,26.93
2023-06-11T07:37:41.014Z,27.65
2023-06-11T07:38:41.053Z,28.02
2023-06-11T07:39:41.013Z,27.85
2023-06-11T07:40:41.046Z,27.87
2023-06-11T07:41:41.063Z,27.40
2023-06-11T07:42:40.994Z,26.33
2023-06-11T07:43:40.966Z,25.36
2023-06-11T07:44:40.967Z,24.06
2023-06-11T07:45:40.977Z,23.59
2023-06-11T07:46:41.034Z,23.41
2023-06-11T07:47:40.945Z,23.46
2023-06-11T07:48:40.911Z,23.98
2023-06-11T07:49:40.881Z,24.86
2023-06-11T07:50:40.942Z,25.40
2023-06-11T07:51:40.889Z,25.41
2023-06-11T07:52:40.879Z,25.90
2023-06-11T07:53:40.856Z,26.33
2023-06-11T07:54:40.889Z,25.98
2023-06-11T07:55:40.870Z,25.53
2023-06-11T07:56:40.880Z,26.10
2023-06-11T07:57:40.805Z,25.96
2023-06-11T07:58:40.823Z,25.72
2023-06-11T07:59:40.828Z,25.96
2023-06-11T08:00:40.798Z,26.52
2023-06-11T08:01:40.803Z,26.78
2023-06-11T08:02:40.854Z,26.51
2023-06-11T08:03:40.796Z,26.88
2023-06-11T08:04:40.778Z,26.78
2023-06-11T08:05:40.773Z,26.90
2023-06-11T08:06:40.726Z,26.68
2023-06-11T08:07:40.717Z,26.83
2023-06-11T08:08:40.797Z,27.22
2023-06-11T08:09:40.672Z,27.89
2023-06-11T08:10:40.706Z,27.33
2023-06-11T08:11:40.650Z,27.44
2023-06-11T08:12:40.728Z,26.93
2023-06-11T08:13:40.679Z,26.48
2023-06-11T08:14:40.648Z,26.16
2023-06-11T08:15:40.607Z,25.63
2023-06-11T08:16:40.634Z,25.63
2023-06-11T08:17:40.696Z,26.74
2023-06-11T08:18:40.627Z,27.68
2023-06-11T08:19:40.582Z,28.51
2023-06-11T08:20:40.629Z,27.92
2023-06-11T08:21:40.546Z,28.74
2023-06-11T08:22:40.607Z,28.93
2023-06-11T08:23:40.629Z,28.42
2023-06-11T08:24:40.528Z,28.70
2023-06-11T08:25:40.516Z,28.66
2023-06-11T08:26:40.543Z,27.67
2023-06-11T08:27:40.536Z,27.75
2023-06-11T08:28:40.470Z,27.25
2023-06-11T08:29:40.542Z,28.48
2023-06-11T08:30:40.452Z,29.39
2023-06-11T08:31:40.530Z,29.07
2023-06-11T08:32:40.484Z,28.89
2023-06-11T08:33:40.466Z,29.27
2023-06-11T08:34:40.440Z,29.42
2023-06-11T08:35:40.405Z,29.44
2023-06-11T08:36:40.467Z,28.89
2023-06-11T08:37:40.384Z,28.72
2023-06-11T08:38:40.394Z,28.75
2023-06-11T08:39:40.359Z,29.36
2023-06-11T08:40:40.417Z,29.81
2023-06-11T08:41:40.369Z,30.47
2023-06-11T08:42:40.342Z,31.05
2023-06-11T08:43:40.355Z,30.09
2023-06-11T08:44:40.326Z,30.32
2023-06-11T08:45:40.359Z,29.93
2023-06-11T08:46:40.389Z,30.08
2023-06-11T08:47:40.332Z,28.82
2023-06-11T08:48:40.274Z,28.63
2023-06-11T08:49:40.276Z,28.47
2023-06-11T08:50:40.319Z,28.89
2023-06-11T08:51:40.258Z,28.63
2023-06-11T08:52:40.268Z,28.70
2023-06-11T08:53:40.248Z,28.51
2023-06-11T08:54:40.205Z,28.27
2023-06-11T08:55:40.202Z,28.20
2023-06-11T08:56:40.173Z,28.32
2023-06-11T08:57:40.176Z,28.88
2023-06-11T08:58:40.154Z,29.72
2023-06-11T08:59:40.191Z,30.23
2023-06-11T09:00:40.191Z,30.63
2023-06-11T09:01:40.201Z,30.91
2023-06-11T09:02:40.172Z,30.68
2023-06-11T09:03:40.171Z,30.18
2023-06-11T09:04:40.163Z,29.13
2023-06-11T09:05:40.113Z,28.29
2023-06-11T09:06:40.086Z,27.93
2023-06-11T09:07:40.046Z,28.02
2023-06-11T09:08:40.075Z,28.52
2023-06-11T09:09:40.085Z,28.45
2023-06-11T09:10:40.039Z,28.33
2023-06-11T09:11:40.049Z,28.37
2023-06-11T09:12:40.050Z,28.98
2023-06-11T09:13:40.049Z,29.53
2023-06-11T09:14:40.045Z,29.24
2023-06-11T09:15:39.955Z,28.86
2023-06-11T09:16:40.017Z,28.32
2023-06-11T09:17:39.995Z,28.86
2023-06-11T09:18:39.996Z,29.31
2023-06-11T09:19:39.933Z,29.91
2023-06-11T09:20:39.957Z,29.75
2023-06-11T09:21:39.909Z,29.26
2023-06-11T09:22:39.927Z,29.59
2023-06-11T09:23:40.011Z,29.50
2023-06-11T09:24:39.914Z,28.64
2023-06-11T09:25:39.889Z,28.66
2023-06-11T09:26:39.931Z,29.35
2023-06-11T09:27:39.931Z,30.54
2023-06-11T09:28:39.940Z,31.40
2023-06-11T09:29:39.849Z,31.36
2023-06-11T09:30:39.837Z,30.85
2023-06-11T09:31:39.860Z,30.25
2023-06-11T09:32:39.918Z,29.94
2023-06-11T09:33:39.992Z,29.79
2023-06-11T09:34:39.827Z,30.06
2023-06-11T09:35:39.759Z,31.20
2023-06-11T09:36:39.781Z,32.00
2023-06-11T09:37:39.809Z,31.47
2023-06-11T09:38:39.745Z,30.90
2023-06-11T09:39:39.753Z,30.69
2023-06-11T09:40:39.755Z,30.02
2023-06-11T09:41:39.717Z,29.57
2023-06-11T09:42:39.765Z,29.69
2023-06-11T09:43:39.698Z,30.70
2023-06-11T09:44:39.676Z,31.65
2023-06-11T09:45:39.767Z,30.92
2023-06-11T09:46:39.681Z,30.53
2023-06-11T09:47:39.679Z,29.90
2023-06-11T09:48:39.646Z,29.45
2023-06-11T09:49:39.648Z,30.30
2023-06-11T09:50:39.619Z,30.13
2023-06-11T09:51:39.680Z,29.95
2023-06-11T09:52:39.606Z,29.26
2023-06-11T09:53:39.636Z,28.79
2023-06-11T09:54:39.571Z,28.30
2023-06-11T09:55:39.578Z,27.67
2023-06-11T09:56:39.600Z,27.00
2023-06-11T09:57:39.522Z,27.05
2023-06-11T09:58:39.566Z,26.99
2023-06-11T09:59:39.533Z,26.97
2023-06-11T10:00:39.530Z,26.89
2023-06-11T10:01:39.645Z,26.52
2023-06-11T10:02:39.578Z,26.37
2023-06-11T10:03:39.514Z,26.47
2023-06-11T10:04:39.466Z,26.59
2023-06-11T10:05:39.520Z,26.38
2023-06-11T10:06:39.503Z,26.66
2023-06-11T10:07:39.455Z,26.89
2023-06-11T10:08:39.444Z,27.73
2023-06-11T10:09:39.438Z,28.42
2023-06-11T10:10:39.435Z,29.10
2023-06-11T10:11:39.410Z,29.14
2023-06-11T10:12:39.407Z,28.30
2023-06-11T10:13:39.379Z,28.22
2023-06-11T10:14:39.389Z,28.47
2023-06-11T10:15:39.411Z,28.57
2023-06-11T10:16:39.480Z,29.56
2023-06-11T10:17:40.886Z,29.27
2023-06-11T10:18:39.345Z,28.11
2023-06-11T10:19:39.361Z,27.00
2023-06-11T10:20:39.368Z,27.33
2023-06-11T10:21:39.325Z,28.35
2023-06-11T10:22:39.274Z,29.05
2023-06-11T10:23:39.329Z,29.13
2023-06-11T10:24:39.316Z,29.56
2023-06-11T10:25:39.305Z,29.93
2023-06-11T10:26:39.299Z,30.08
2023-06-11T10:27:39.253Z,30.25
2023-06-11T10:28:39.210Z,30.18
2023-06-11T10:29:39.245Z,30.21
2023-06-11T10:30:39.240Z,29.91
2023-06-11T10:31:39.210Z,29.71
2023-06-11T10:32:39.181Z,29.01
2023-06-11T10:33:39.268Z,28.32
2023-06-11T10:34:39.419Z,27.90
2023-06-11T10:35:39.198Z,27.26
2023-06-11T10:36:39.145Z,26.77
2023-06-11T10:37:39.139Z,27.39
2023-06-11T10:38:39.175Z,28.29
2023-06-11T10:39:39.131Z,28.84
2023-06-11T10:40:39.132Z,29.49
2023-06-11T10:41:39.114Z,29.90
2023-06-11T10:42:39.134Z,30.02
2023-06-11T10:43:39.121Z,29.94
2023-06-11T10:44:39.072Z,29.93
2023-06-11T10:45:39.043Z,29.45
2023-06-11T10:46:39.158Z,29.53
2023-06-11T10:47:39.065Z,29.19
2023-06-11T10:48:39.096Z,28.63
2023-06-11T10:49:39.026Z,28.96
2023-06-11T10:50:39.019Z,29.41
2023-06-11T10:51:40.574Z,29.60
2023-06-11T10:52:39.005Z,29.27
2023-06-11T10:53:39.019Z,29.75
2023-06-11T10:54:38.962Z,30.51
2023-06-11T10:55:38.929Z,30.68
2023-06-11T10:56:38.937Z,30.68
2023-06-11T10:57:38.973Z,30.32
2023-06-11T10:58:38.924Z,30.18
2023-06-11T10:59:38.914Z,30.73
2023-06-11T11:00:38.923Z,30.03
2023-06-11T11:01:39.018Z,29.75
2023-06-11T11:02:38.938Z,29.54
2023-06-11T11:03:39.013Z,30.10
2023-06-11T11:04:38.871Z,30.27
2023-06-11T11:05:38.843Z,30.77
2023-06-11T11:06:38.871Z,31.20
2023-06-11T11:07:38.810Z,31.52
2023-06-11T11:08:38.864Z,30.46
2023-06-11T11:09:38.810Z,29.81
2023-06-11T11:10:38.862Z,29.94
2023-06-11T11:11:38.830Z,29.91
2023-06-11T11:12:38.785Z,30.57
2023-06-11T11:13:38.741Z,30.84
2023-06-11T11:14:38.766Z,30.90
2023-06-11T11:15:38.791Z,30.66
2023-06-11T11:16:41.264Z,30.46
2023-06-11T11:17:38.840Z,30.06
2023-06-11T11:18:38.743Z,30.48
2023-06-11T11:19:38.695Z,30.37
2023-06-11T11:20:38.764Z,30.72
2023-06-11T11:21:41.035Z,30.66
2023-06-11T11:22:38.687Z,29.98
2023-06-11T11:23:38.700Z,29.88
2023-06-11T11:24:40.721Z,30.25
2023-06-11T11:25:38.674Z,29.61
2023-06-11T11:26:38.643Z,28.52
2023-06-11T11:27:38.620Z,27.85
2023-06-11T11:28:38.625Z,27.49
2023-06-11T11:29:38.672Z,27.14
2023-06-11T11:30:38.606Z,26.90
2023-06-11T11:31:38.625Z,26.97
2023-06-11T11:32:38.623Z,27.85
2023-06-11T11:33:38.573Z,28.76
2023-06-11T11:34:38.598Z,29.56
2023-06-11T11:35:38.572Z,30.27
2023-06-11T11:36:38.578Z,30.24
2023-06-11T11:37:38.514Z,30.37
2023-06-11T11:38:38.558Z,30.85
2023-06-11T11:39:38.559Z,30.66
2023-06-11T11:40:38.501Z,30.65
2023-06-11T11:41:38.493Z,30.63
2023-06-11T11:42:38.475Z,30.85
2023-06-11T11:43:39.277Z,31.28
2023-06-11T11:44:38.544Z,31.43
2023-06-11T11:45:38.440Z,31.51
2023-06-11T11:46:38.459Z,31.44
2023-06-11T11:47:38.464Z,31.78
2023-06-11T11:48:38.458Z,31.87
2023-06-11T11:49:38.445Z,32.19
2023-06-11T11:50:38.389Z,32.56
2023-06-11T11:51:38.416Z,32.80
2023-06-11T11:52:38.433Z,32.27
2023-06-11T11:53:38.402Z,30.99
2023-06-11T11:54:38.353Z,30.80
2023-06-11T11:55:51.765Z,30.66
2023-06-11T11:56:39.342Z,30.94
2023-06-11T11:57:38.383Z,30.81
2023-06-11T11:58:38.369Z,30.84
2023-06-11T11:59:38.315Z,31.00
2023-06-11T12:00:38.333Z,31.61
2023-06-11T12:01:38.346Z,31.66
2023-06-11T12:02:38.381Z,31.73
2023-06-11T12:03:38.797Z,32.01
2023-06-11T12:04:38.282Z,31.74
2023-06-11T12:05:38.299Z,31.56
2023-06-11T12:06:38.250Z,31.14
2023-06-11T12:07:38.263Z,31.20
2023-06-11T12:08:38.244Z,31.87
2023-06-11T12:09:38.240Z,32.21
2023-06-11T12:10:38.203Z,31.52
2023-06-11T12:11:45.753Z,31.28
2023-06-11T12:12:39.219Z,30.99
2023-06-11T12:13:38.522Z,30.91
2023-06-11T12:14:38.163Z,30.72
2023-06-11T12:15:38.148Z,31.28
2023-06-11T12:16:38.205Z,31.20
2023-06-11T12:17:38.179Z,31.42
2023-06-11T12:18:38.100Z,31.99
2023-06-11T12:19:38.127Z,31.54
2023-06-11T12:20:38.109Z,31.40
2023-06-11T12:21:38.139Z,31.31
2023-06-11T12:22:38.415Z,30.91
2023-06-11T12:23:38.112Z,31.31
2023-06-11T12:24:38.193Z,31.71
2023-06-11T12:25:38.094Z,31.99
2023-06-11T12:26:38.089Z,32.29
2023-06-11T12:27:38.059Z,31.64
2023-06-11T12:28:38.090Z,31.03
2023-06-11T12:29:38.062Z,30.66
2023-06-11T12:30:38.036Z,30.53
2023-06-11T12:31:38.106Z,30.54
2023-06-11T12:32:37.991Z,30.43
2023-06-11T12:33:37.976Z,29.97
2023-06-11T12:34:37.973Z,30.50
2023-06-11T12:35:38.013Z,30.81
2023-06-11T12:36:40.248Z,30.75
2023-06-11T12:37:37.926Z,30.30
2023-06-11T12:38:40.322Z,30.05
2023-06-11T12:39:37.893Z,29.60
2023-06-11T12:40:37.939Z,29.79
2023-06-11T12:41:37.878Z,30.06
2023-06-11T12:42:37.885Z,29.93
2023-06-11T12:43:37.871Z,30.27
2023-06-11T12:44:37.927Z,30.50
2023-06-11T12:45:37.884Z,30.69
2023-06-11T12:46:37.961Z,30.85
2023-06-11T12:47:37.850Z,30.85
2023-06-11T12:48:37.820Z,31.25
2023-06-11T12:49:37.874Z,31.78
2023-06-11T12:50:37.824Z,32.22
2023-06-11T12:51:37.769Z,31.74
2023-06-11T12:52:37.774Z,31.73